Time;durP1;ratioP1;P1;durP2;ratioP2;P2;SDS_P1;SDS_P2;PMS_P1;PMS_P2;Temp;Humidity;BMP_temperature;BMP_pressure;BME280_temperature;BME280_humidity;BME280_pressure;Samples;Min_cycle;Max_cycle;Signal;HPM_P1;HPM_P2
2021/03/20 00:01:34;;;;;;;29.35;26.95;;;0.40;84.60;;;;;;5093492;28;20204;-76
2021/03/20 00:04:01;;;;;;;30.73;28.40;;;0.40;84.50;;;;;;5093539;28;20206;-76
2021/03/20 00:06:37;;;;;;;823.45;107.80;;;0.40;84.60;;;;;;5092379;28;20653;-76
2021/03/20 00:09:08;;;;;;;29.35;27.02;;;0.40;87.90;;;;;;5093170;28;20276;-76
2021/03/20 00:11:34;;;;;;;26.05;24.25;;;0.40;87.20;;;;;;5093409;28;20208;-76
2021/03/20 00:14:01;;;;;;;26.50;24.30;;;0.40;86.30;;;;;;5093344;28;20284;-76
2021/03/20 00:16:27;;;;;;;27.35;25.00;;;0.40;85.70;;;;;;5093084;28;20191;-76
2021/03/20 00:18:54;;;;;;;36.50;32.75;;;0.30;85.50;;;;;;5093099;28;20750;-76
2021/03/20 00:21:20;;;;;;;30.30;27.75;;;0.30;85.60;;;;;;5093166;28;20576;-76
2021/03/20 00:23:47;;;;;;;28.00;26.00;;;0.30;85.50;;;;;;5093112;28;20336;-76
2021/03/20 00:26:15;;;;;;;28.70;26.52;;;0.20;85.50;;;;;;5093077;28;20202;-76
2021/03/20 00:28:41;;;;;;;27.45;25.08;;;0.20;85.70;;;;;;5092922;28;20223;-76
2021/03/20 00:31:10;;;;;;;27.30;25.25;;;0.20;85.80;;;;;;5093137;28;20562;-76
2021/03/20 00:33:38;;;;;;;30.13;27.23;;;0.20;85.80;;;;;;5092923;28;20228;-76
2021/03/20 00:36:06;;;;;;;28.10;25.60;;;0.20;87.20;;;;;;5092713;28;20206;-77
2021/03/20 00:38:32;;;;;;;28.35;25.90;;;0.20;88.20;;;;;;5092902;28;20203;-76
2021/03/20 00:40:59;;;;;;;28.70;26.38;;;0.20;87.20;;;;;;5092948;28;20214;-76
2021/03/20 00:43:27;;;;;;;27.58;25.33;;;0.20;86.70;;;;;;5092756;28;20573;-77
2021/03/20 00:45:54;;;;;;;27.02;25.23;;;0.20;86.00;;;;;;5092643;28;20196;-76
2021/03/20 00:48:23;;;;;;;28.02;25.60;;;0.10;85.90;;;;;;5092496;28;20221;-76
2021/03/20 00:50:50;;;;;;;27.65;25.65;;;0.20;85.90;;;;;;5092820;28;20203;-76
2021/03/20 00:53:17;;;;;;;27.67;25.55;;;0.20;85.80;;;;;;5092361;28;20283;-76
2021/03/20 00:55:44;;;;;;;26.48;24.55;;;0.20;85.80;;;;;;5092533;28;20205;-75
2021/03/20 00:58:22;;;;;;;26.45;24.48;;;0.30;85.60;;;;;;5092559;28;20203;-77
2021/03/20 01:00:51;;;;;;;28.05;25.98;;;0.30;85.60;;;;;;5092695;28;20201;-76
2021/03/20 01:03:18;;;;;;;27.83;25.92;;;0.30;85.70;;;;;;5092633;28;20295;-76
2021/03/20 01:05:45;;;;;;;28.88;26.48;;;0.30;85.60;;;;;;5092321;28;20287;-76
2021/03/20 01:08:12;;;;;;;26.67;24.67;;;0.40;85.70;;;;;;5092578;28;20215;-76
2021/03/20 01:10:39;;;;;;;26.25;24.35;;;0.50;85.40;;;;;;5092538;28;20238;-76
2021/03/20 01:13:05;;;;;;;28.55;26.13;;;0.50;85.10;;;;;;5092486;28;20211;-76
2021/03/20 01:15:32;;;;;;;28.27;25.95;;;0.60;84.90;;;;;;5092269;28;20729;-76
2021/03/20 01:17:59;;;;;;;28.10;25.92;;;0.60;84.50;;;;;;5094539;28;20330;-76
2021/03/20 01:20:26;;;;;;;27.20;25.17;;;0.60;84.50;;;;;;5096619;28;20259;-76
2021/03/20 01:22:52;;;;;;;29.23;26.73;;;0.60;84.40;;;;;;5096648;28;20207;-76
2021/03/20 01:25:19;;;;;;;27.08;24.75;;;0.60;84.30;;;;;;5096522;28;20204;-76
2021/03/20 01:27:48;;;;;;;26.75;24.85;;;0.60;83.80;;;;;;5096134;28;20226;-77
2021/03/20 01:30:18;;;;;;;26.95;24.70;;;0.60;83.90;;;;;;5096418;28;20212;-76
2021/03/20 01:32:45;;;;;;;28.50;26.30;;;0.50;84.10;;;;;;5096502;28;20278;-76
2021/03/20 01:35:12;;;;;;;26.85;24.85;;;0.50;84.50;;;;;;5096546;28;20581;-76
2021/03/20 01:37:38;;;;;;;27.85;25.75;;;0.40;84.90;;;;;;5096084;28;20199;-76
2021/03/20 01:40:07;;;;;;;28.98;26.75;;;0.40;85.30;;;;;;5096199;28;20686;-76
2021/03/20 01:42:33;;;;;;;26.63;24.73;;;0.50;85.50;;;;;;5096202;28;20565;-76
2021/03/20 01:45:08;;;;;;;28.20;26.02;;;0.50;85.80;;;;;;5096100;28;20207;-76
2021/03/20 01:47:39;;;;;;;26.50;24.52;;;0.60;86.10;;;;;;5095918;28;20225;-77
2021/03/20 01:50:06;;;;;;;26.25;24.35;;;0.70;88.90;;;;;;5096115;28;20217;-76
2021/03/20 01:52:34;;;;;;;26.98;24.83;;;0.90;90.20;;;;;;5095870;28;20200;-77
2021/03/20 01:55:05;;;;;;;27.40;24.77;;;0.90;88.00;;;;;;5096090;28;20233;-77
2021/03/20 01:57:36;;;;;;;26.65;24.63;;;1.00;86.80;;;;;;5095672;28;20688;-76
2021/03/20 02:00:06;;;;;;;26.25;24.27;;;1.00;87.30;;;;;;5095845;28;20246;-76
2021/03/20 02:02:34;;;;;;;25.55;23.80;;;1.10;84.20;;;;;;5095949;28;20196;-76
2021/03/20 02:05:01;;;;;;;27.00;25.00;;;1.10;83.50;;;;;;5095843;28;20659;-76
2021/03/20 02:07:27;;;;;;;25.63;23.88;;;1.20;83.10;;;;;;5095459;28;20218;-77
2021/03/20 02:09:55;;;;;;;28.73;25.63;;;1.20;82.70;;;;;;5095615;28;20590;-76
2021/03/20 02:12:28;;;;;;;27.00;25.02;;;1.30;82.60;;;;;;5095684;28;20288;-76
2021/03/20 02:15:03;;;;;;;26.00;24.27;;;1.30;83.90;;;;;;5095596;28;20197;-76
2021/03/20 02:17:36;;;;;;;26.42;24.55;;;1.40;83.70;;;;;;5095519;28;20212;-76
2021/03/20 02:20:40;;;;;;;25.52;23.83;;;1.50;81.80;;;;;;5095653;28;20627;-76
2021/03/20 02:23:42;;;;;;;25.15;23.50;;;1.50;82.20;;;;;;5095764;28;20216;-76
2021/03/20 02:26:45;;;;;;;27.33;25.52;;;1.50;82.60;;;;;;5095338;28;20253;-76
2021/03/20 02:29:43;;;;;;;27.05;25.15;;;1.60;82.10;;;;;;5091882;28;20312;-76
2021/03/20 02:32:33;;;;;;;27.73;25.80;;;1.60;81.30;;;;;;5095355;28;20626;-76
2021/03/20 02:35:04;;;;;;;26.30;24.52;;;1.60;80.80;;;;;;5095247;28;20229;-76
2021/03/20 02:37:38;;;;;;;27.38;25.60;;;1.60;82.30;;;;;;5095215;28;20198;-76
2021/03/20 02:40:12;;;;;;;26.27;24.58;;;1.60;81.80;;;;;;5095183;28;20339;-76
2021/03/20 02:42:45;;;;;;;27.75;25.90;;;1.60;80.90;;;;;;5095194;28;20196;-76
2021/03/20 02:45:18;;;;;;;28.98;26.90;;;1.60;80.90;;;;;;5095182;28;20197;-76
2021/03/20 02:47:56;;;;;;;26.80;24.70;;;1.80;79.50;;;;;;5094870;28;20836;-77
2021/03/20 02:50:30;;;;;;;26.70;24.95;;;1.80;79.20;;;;;;5094881;28;20225;-76
2021/03/20 02:53:04;;;;;;;28.38;26.30;;;1.70;79.50;;;;;;5094639;28;20199;-77
2021/03/20 02:55:34;;;;;;;28.05;25.90;;;1.60;80.00;;;;;;5094703;28;20202;-76
2021/03/20 02:58:04;;;;;;;28.05;25.77;;;1.60;80.00;;;;;;5094547;28;20208;-76
2021/03/20 03:00:34;;;;;;;28.67;26.15;;;1.60;80.50;;;;;;5094861;28;20243;-76
2021/03/20 03:03:04;;;;;;;29.90;25.98;;;1.50;83.20;;;;;;5094733;28;20205;-76
2021/03/20 03:05:35;;;;;;;58.92;28.63;;;1.50;87.20;;;;;;5094495;28;20198;-77
2021/03/20 03:08:07;;;;;;;26.00;24.10;;;1.50;88.30;;;;;;5094390;28;20219;-77
2021/03/20 03:10:37;;;;;;;26.55;24.70;;;1.60;87.90;;;;;;5094710;28;20221;-76
2021/03/20 03:13:07;;;;;;;26.52;24.63;;;1.60;83.00;;;;;;5094452;28;20249;-77
2021/03/20 03:15:38;;;;;;;26.83;25.02;;;1.40;81.60;;;;;;5094319;28;20215;-76
2021/03/20 03:18:10;;;;;;;26.67;24.88;;;1.40;81.60;;;;;;5094449;28;20204;-77
2021/03/20 03:20:43;;;;;;;26.73;24.75;;;1.40;81.60;;;;;;5094275;28;20538;-76
2021/03/20 03:23:13;;;;;;;26.92;25.05;;;1.50;81.80;;;;;;5094496;28;20204;-76
2021/03/20 03:25:44;;;;;;;26.48;24.67;;;1.50;81.80;;;;;;5094175;28;20202;-76
2021/03/20 03:28:16;;;;;;;26.55;24.75;;;1.60;81.50;;;;;;5094252;28;20271;-76
2021/03/20 03:30:43;;;;;;;27.65;25.65;;;1.60;81.80;;;;;;5094094;28;20219;-76
2021/03/20 03:33:14;;;;;;;25.98;24.05;;;1.60;82.10;;;;;;5094230;28;20280;-77
2021/03/20 03:35:46;;;;;;;28.38;26.10;;;1.50;82.40;;;;;;5094138;28;20611;-76
2021/03/20 03:38:20;;;;;;;27.95;26.05;;;1.40;83.20;;;;;;5094131;28;20198;-77
2021/03/20 03:40:51;;;;;;;27.23;25.42;;;1.50;83.30;;;;;;5093891;28;20201;-76
2021/03/20 03:43:18;;;;;;;26.30;24.50;;;1.60;82.60;;;;;;5093675;28;20735;-76
2021/03/20 03:45:46;;;;;;;27.02;25.02;;;1.60;82.00;;;;;;5093859;28;20246;-76
2021/03/20 03:48:15;;;;;;;27.80;25.70;;;1.60;82.20;;;;;;5093849;28;20213;-77
2021/03/20 03:50:43;;;;;;;27.58;25.67;;;1.80;81.40;;;;;;5093818;28;20722;-76
2021/03/20 03:53:11;;;;;;;26.92;25.02;;;1.70;81.40;;;;;;5093528;28;20271;-76
2021/03/20 03:55:38;;;;;;;26.55;24.77;;;1.60;81.70;;;;;;5093514;28;20676;-75
2021/03/20 03:58:33;;;;;;;27.70;25.70;;;1.50;82.00;;;;;;5093442;28;20560;-76
2021/03/20 04:01:07;;;;;;;28.63;26.23;;;1.40;83.80;;;;;;5070987;28;20227;-76
2021/03/20 04:03:55;;;;;;;27.92;25.63;;;1.40;84.00;;;;;;5093646;28;20201;-76
2021/03/20 04:06:44;;;;;;;25.55;23.85;;;1.30;85.30;;;;;;5090788;28;20665;-77
2021/03/20 04:09:28;;;;;;;26.00;24.20;;;1.40;84.10;;;;;;5093336;28;20229;-76
2021/03/20 04:12:00;;;;;;;25.23;23.48;;;1.30;83.60;;;;;;5093430;28;20201;-76
2021/03/20 04:14:34;;;;;;;26.08;24.38;;;1.40;83.30;;;;;;5093381;28;20286;-76
2021/03/20 04:17:09;;;;;;;26.17;24.48;;;1.50;81.80;;;;;;5093080;28;20205;-76
2021/03/20 04:19:47;;;;;;;26.52;24.73;;;1.40;82.40;;;;;;5093308;28;20317;-76
2021/03/20 04:22:24;;;;;;;26.15;24.35;;;1.40;82.60;;;;;;5093356;28;20690;-77
2021/03/20 04:24:59;;;;;;;26.25;24.35;;;1.50;84.30;;;;;;5093225;28;20540;-76
2021/03/20 04:27:32;;;;;;;25.42;23.65;;;1.50;82.30;;;;;;5092900;28;20201;-76
2021/03/20 04:30:06;;;;;;;25.92;24.00;;;1.40;83.50;;;;;;5093183;28;20221;-76
2021/03/20 04:32:39;;;;;;;27.30;25.50;;;1.40;82.60;;;;;;5093204;28;20253;-76
2021/03/20 04:35:12;;;;;;;25.58;23.98;;;1.40;82.10;;;;;;5093193;28;20257;-76
2021/03/20 04:37:42;;;;;;;26.75;25.05;;;1.30;81.50;;;;;;5092859;28;20199;-77
2021/03/20 04:40:24;;;;;;;27.60;25.80;;;1.40;81.40;;;;;;5092912;28;20699;-77
2021/03/20 04:42:51;;;;;;;26.45;24.65;;;1.30;81.80;;;;;;5092914;28;20206;-76
2021/03/20 04:45:26;;;;;;;24.67;22.98;;;1.40;82.10;;;;;;5092951;28;20198;-76
2021/03/20 04:47:54;;;;;;;27.70;25.80;;;1.50;82.50;;;;;;5092843;28;20228;-76
2021/03/20 04:50:25;;;;;;;26.20;24.30;;;1.60;83.10;;;;;;5092961;28;20222;-76
2021/03/20 04:52:53;;;;;;;27.15;25.20;;;1.60;82.30;;;;;;5092109;28;20232;-76
2021/03/20 04:55:20;;;;;;;26.73;24.83;;;1.60;82.70;;;;;;5092717;28;20208;-76
2021/03/20 04:57:50;;;;;;;26.27;24.58;;;1.50;82.80;;;;;;5092501;28;20194;-76
2021/03/20 05:00:24;;;;;;;26.30;24.70;;;1.30;83.40;;;;;;5092669;28;20249;-75
2021/03/20 05:02:56;;;;;;;27.02;25.02;;;1.20;83.60;;;;;;5092752;28;20201;-77
2021/03/20 05:05:28;;;;;;;28.13;26.08;;;1.10;84.00;;;;;;5092795;28;20194;-76
2021/03/20 05:08:00;;;;;;;26.25;24.40;;;1.00;84.70;;;;;;5092675;28;20774;-76
2021/03/20 05:10:33;;;;;;;27.02;25.02;;;1.00;85.20;;;;;;5092679;28;20327;-76
2021/03/20 05:13:02;;;;;;;27.40;25.60;;;1.00;85.20;;;;;;5092721;28;20278;-76
2021/03/20 05:15:30;;;;;;;26.80;24.88;;;1.10;85.20;;;;;;5092481;28;20333;-76
2021/03/20 05:17:57;;;;;;;26.65;24.95;;;1.00;85.00;;;;;;5092617;28;20197;-76
2021/03/20 05:20:25;;;;;;;26.73;24.80;;;0.80;85.70;;;;;;5092557;28;20306;-76
2021/03/20 05:22:51;;;;;;;28.77;26.88;;;0.80;85.80;;;;;;5092605;28;20196;-77
2021/03/20 05:25:21;;;;;;;26.73;24.88;;;0.80;86.00;;;;;;5092517;28;20204;-77
2021/03/20 05:27:48;;;;;;;26.50;24.63;;;0.70;86.10;;;;;;5092322;28;20276;-76
2021/03/20 05:30:16;;;;;;;28.25;26.33;;;0.70;86.20;;;;;;5092546;28;20269;-76
2021/03/20 05:32:42;;;;;;;26.88;24.98;;;0.70;86.20;;;;;;5092431;28;20199;-76
2021/03/20 05:35:12;;;;;;;27.38;25.48;;;0.80;86.30;;;;;;5092417;28;20199;-76
2021/03/20 05:37:41;;;;;;;26.95;25.05;;;0.70;86.20;;;;;;5092318;28;20209;-76
2021/03/20 05:40:18;;;;;;;25.95;24.05;;;0.80;85.80;;;;;;5092369;28;20239;-76
2021/03/20 05:43:11;;;;;;;27.98;26.08;;;0.80;85.90;;;;;;5092360;28;20203;-76
2021/03/20 05:45:42;;;;;;;26.80;25.00;;;0.70;86.30;;;;;;5091787;28;20239;-76
2021/03/20 05:48:16;;;;;;;26.63;24.73;;;0.70;86.60;;;;;;5092261;28;20224;-76
2021/03/20 05:51:23;;;;;;;28.30;26.52;;;0.70;85.90;;;;;;5092218;28;20272;-77
2021/03/20 05:54:26;;;;;;;27.95;25.90;;;0.70;86.00;;;;;;5092024;28;20200;-77
2021/03/20 05:57:01;;;;;;;27.63;25.73;;;0.80;85.80;;;;;;5091963;28;20204;-76
2021/03/20 05:59:36;;;;;;;27.83;25.83;;;0.80;85.80;;;;;;5092112;28;20580;-76
2021/03/20 06:02:18;;;;;;;25.73;23.92;;;0.80;85.90;;;;;;5092319;28;20192;-76
2021/03/20 06:04:46;;;;;;;26.40;24.65;;;0.90;85.20;;;;;;5093922;28;20205;-76
2021/03/20 06:07:35;;;;;;;28.67;26.80;;;0.80;85.60;;;;;;5095570;28;20195;-76
2021/03/20 06:10:13;;;;;;;27.65;25.73;;;0.80;85.70;;;;;;5095734;28;20697;-76
2021/03/20 06:12:50;;;;;;;27.25;25.45;;;0.90;85.80;;;;;;5095788;28;20192;-76
2021/03/20 06:15:32;;;;;;;27.60;25.63;;;0.90;84.90;;;;;;5095745;28;20200;-76
2021/03/20 06:18:12;;;;;;;26.88;25.08;;;0.90;84.80;;;;;;5095596;28;20203;-76
2021/03/20 06:20:48;;;;;;;27.17;25.25;;;0.90;84.60;;;;;;5095493;28;20222;-77
2021/03/20 06:23:44;;;;;;;28.20;26.10;;;0.90;84.50;;;;;;5095537;28;20204;-76
2021/03/20 06:26:15;;;;;;;26.88;25.15;;;1.00;84.10;;;;;;5095336;28;20191;-76
2021/03/20 06:28:49;;;;;;;25.80;24.05;;;1.00;82.90;;;;;;5095318;28;20235;-76
2021/03/20 06:31:24;;;;;;;24.77;23.38;;;1.00;80.00;;;;;;5095323;28;20197;-76
2021/03/20 06:33:55;;;;;;;26.33;24.40;;;1.10;78.90;;;;;;5095350;28;20257;-76
2021/03/20 06:36:26;;;;;;;26.85;24.63;;;1.20;77.60;;;;;;5095174;28;20197;-76
2021/03/20 06:39:01;;;;;;;26.45;24.85;;;1.30;77.40;;;;;;5095189;28;20295;-76
2021/03/20 06:41:36;;;;;;;24.98;23.40;;;1.40;77.40;;;;;;5095101;28;20196;-76
2021/03/20 06:44:16;;;;;;;25.50;24.00;;;1.40;74.90;;;;;;5095059;28;20204;-76
2021/03/20 06:46:44;;;;;;;24.50;22.80;;;1.40;74.90;;;;;;5094827;28;20204;-76
2021/03/20 06:49:26;;;;;;;25.58;23.98;;;1.60;74.60;;;;;;5094776;28;20761;-76
2021/03/20 06:51:53;;;;;;;25.13;23.60;;;1.70;73.30;;;;;;5094786;28;20193;-76
2021/03/20 06:54:21;;;;;;;24.80;23.38;;;1.50;74.40;;;;;;5095032;28;20202;-76
2021/03/20 06:56:51;;;;;;;26.15;24.55;;;1.60;74.50;;;;;;5094695;28;20198;-77
2021/03/20 06:59:17;;;;;;;24.15;22.75;;;1.70;74.00;;;;;;5094635;28;20263;-77
2021/03/20 07:01:53;;;;;;;27.30;25.08;;;1.60;74.10;;;;;;5094706;28;20203;-76
2021/03/20 07:04:27;;;;;;;24.73;23.20;;;1.50;73.80;;;;;;5094942;28;20240;-76
2021/03/20 07:07:18;;;;;;;26.02;24.42;;;1.50;73.90;;;;;;5094578;28;20196;-76
2021/03/20 07:09:46;;;;;;;24.90;23.50;;;1.60;72.30;;;;;;5094405;28;20226;-77
2021/03/20 07:12:15;;;;;;;26.00;24.33;;;1.70;71.40;;;;;;5094732;28;20205;-76
2021/03/20 07:14:44;;;;;;;25.50;23.85;;;1.80;71.20;;;;;;5094172;28;20200;-76
2021/03/20 07:17:26;;;;;;;26.10;24.60;;;1.70;70.70;;;;;;5094371;28;20216;-76
2021/03/20 07:19:54;;;;;;;26.05;24.23;;;1.70;71.50;;;;;;5094261;28;20589;-77
2021/03/20 07:22:34;;;;;;;25.40;23.90;;;1.70;71.80;;;;;;5094248;28;20671;-76
2021/03/20 07:25:12;;;;;;;25.80;24.02;;;1.90;70.90;;;;;;5094363;28;20205;-76
2021/03/20 07:27:40;;;;;;;28.17;26.48;;;1.90;70.60;;;;;;5094132;28;20199;-76
2021/03/20 07:30:27;;;;;;;24.80;23.40;;;2.00;71.50;;;;;;5094139;28;20740;-76
2021/03/20 07:32:53;;;;;;;25.83;24.08;;;1.90;70.80;;;;;;5094342;28;20272;-76
2021/03/20 07:35:32;;;;;;;26.23;24.00;;;2.00;71.30;;;;;;5094221;28;20289;-76
2021/03/20 07:38:19;;;;;;;25.27;23.67;;;2.10;70.90;;;;;;5094099;28;20336;-76
2021/03/20 07:40:45;;;;;;;27.00;25.50;;;2.30;69.20;;;;;;5093982;28;20277;-76
2021/03/20 07:43:15;;;;;;;26.30;24.63;;;2.50;67.70;;;;;;5093852;28;20207;-76
2021/03/20 07:45:42;;;;;;;26.42;24.77;;;2.60;66.90;;;;;;5093954;28;20195;-76
2021/03/20 07:48:22;;;;;;;25.20;23.80;;;2.60;66.50;;;;;;5093876;28;20219;-76
2021/03/20 07:50:59;;;;;;;24.40;23.00;;;2.50;66.50;;;;;;5093930;28;20191;-76
2021/03/20 07:53:27;;;;;;;24.65;23.15;;;2.50;67.40;;;;;;5093497;28;20671;-76
2021/03/20 07:56:01;;;;;;;24.80;23.20;;;2.30;68.50;;;;;;5093475;28;20564;-76
2021/03/20 07:58:35;;;;;;;23.98;22.58;;;2.40;67.50;;;;;;5093493;28;20281;-76
2021/03/20 08:01:05;;;;;;;24.70;23.27;;;2.50;66.70;;;;;;5093589;28;20689;-76
2021/03/20 08:03:34;;;;;;;25.90;24.30;;;2.60;66.20;;;;;;5093497;28;20286;-76
2021/03/20 08:06:12;;;;;;;25.17;23.67;;;2.80;64.80;;;;;;5093272;28;20210;-77
2021/03/20 08:08:38;;;;;;;24.42;23.02;;;2.60;64.70;;;;;;5093120;28;20275;-76
2021/03/20 08:11:05;;;;;;;27.13;25.60;;;2.80;63.80;;;;;;5093369;28;20199;-76
2021/03/20 08:13:41;;;;;;;24.92;23.48;;;2.90;62.90;;;;;;5093397;28;20191;-76
2021/03/20 08:16:08;;;;;;;24.80;23.17;;;2.80;62.00;;;;;;5093072;28;20198;-76
2021/03/20 08:18:36;;;;;;;25.17;23.67;;;2.70;62.10;;;;;;5093200;28;20206;-77
2021/03/20 08:21:31;;;;;;;25.92;24.33;;;2.50;64.40;;;;;;5093214;28;20205;-76
2021/03/20 08:24:25;;;;;;;26.35;24.77;;;2.60;63.10;;;;;;5093251;28;20767;-76
2021/03/20 08:27:05;;;;;;;26.10;24.50;;;2.20;63.70;;;;;;5036891;28;20279;-77
2021/03/20 08:30:16;;;;;;;24.25;22.77;;;2.00;62.30;;;;;;5092935;28;20223;-76
2021/03/20 08:33:22;;;;;;;26.92;25.42;;;2.20;61.00;;;;;;5077389;28;20231;-77
2021/03/20 08:35:56;;;;;;;25.48;24.10;;;2.30;61.20;;;;;;5030613;28;20200;-76
2021/03/20 08:38:36;;;;;;;27.90;26.50;;;2.20;60.50;;;;;;5081118;28;20239;-76
2021/03/20 08:41:09;;;;;;;25.23;23.70;;;2.30;61.80;;;;;;5092907;28;20194;-76
2021/03/20 08:44:11;;;;;;;23.25;21.95;;;2.40;61.20;;;;;;5092636;28;20203;-76
2021/03/20 08:46:57;;;;;;;25.95;24.35;;;2.80;60.00;;;;;;5092759;28;20205;-76
2021/03/20 08:49:36;;;;;;;24.70;23.23;;;2.80;60.60;;;;;;5092761;28;20215;-76
2021/03/20 08:52:14;;;;;;;26.25;24.42;;;3.00;60.00;;;;;;5092602;28;20202;-76
2021/03/20 08:55:08;;;;;;;24.98;23.38;;;2.90;59.90;;;;;;5092733;28;20679;-76
2021/03/20 08:57:43;;;;;;;24.88;23.48;;;2.80;58.80;;;;;;5091934;28;20659;-76
2021/03/20 09:00:17;;;;;;;24.73;23.23;;;2.50;58.30;;;;;;5092725;28;20221;-76
2021/03/20 09:02:45;;;;;;;24.63;23.13;;;2.30;58.60;;;;;;5092804;28;20195;-76
2021/03/20 09:05:28;;;;;;;25.95;24.33;;;2.40;59.20;;;;;;5092758;28;20549;-76
2021/03/20 09:07:59;;;;;;;24.70;23.20;;;2.70;59.10;;;;;;5092776;28;20731;-76
2021/03/20 09:10:30;;;;;;;24.20;22.70;;;2.70;57.10;;;;;;5092485;28;20215;-76
2021/03/20 09:13:04;;;;;;;25.27;23.88;;;2.70;57.40;;;;;;5092672;28;20195;-77
2021/03/20 09:15:32;;;;;;;24.88;23.17;;;2.50;58.20;;;;;;5092402;28;20201;-76
2021/03/20 09:18:01;;;;;;;24.33;22.92;;;2.20;57.10;;;;;;5092612;28;20282;-76
2021/03/20 09:20:39;;;;;;;26.23;24.83;;;2.10;57.70;;;;;;5092350;28;20614;-76
2021/03/20 09:23:07;;;;;;;23.02;21.77;;;2.40;57.40;;;;;;5092585;28;20199;-76
2021/03/20 09:25:36;;;;;;;25.48;23.88;;;2.60;56.60;;;;;;5092311;28;20195;-76
2021/03/20 09:28:08;;;;;;;25.13;23.73;;;2.60;57.70;;;;;;5092573;28;20268;-76
2021/03/20 09:30:40;;;;;;;24.20;22.90;;;2.90;57.60;;;;;;5092532;28;20251;-76
2021/03/20 09:33:16;;;;;;;23.92;22.40;;;3.10;55.90;;;;;;5092466;28;20652;-76
2021/03/20 09:35:46;;;;;;;23.25;21.95;;;3.30;56.00;;;;;;5092456;28;20198;-76
2021/03/20 09:38:13;;;;;;;23.88;22.48;;;3.40;54.10;;;;;;5093293;28;20197;-76
2021/03/20 09:40:53;;;;;;;24.58;23.10;;;3.70;51.70;;;;;;5096251;28;20260;-76
2021/03/20 09:43:43;;;;;;;24.67;23.27;;;3.60;49.70;;;;;;5096264;28;20211;-76
2021/03/20 09:46:48;;;;;;;24.05;22.65;;;3.40;50.80;;;;;;5096112;28;20226;-76
2021/03/20 09:49:48;;;;;;;25.08;23.77;;;3.30;49.90;;;;;;5096104;28;20685;-76
2021/03/20 09:52:37;;;;;;;23.80;22.50;;;3.60;48.20;;;;;;5095999;28;20207;-76
2021/03/20 09:55:43;;;;;;;22.88;21.67;;;4.00;48.70;;;;;;5096188;28;20199;-76
2021/03/20 09:58:39;;;;;;;22.75;21.55;;;4.60;46.40;;;;;;5095807;28;20198;-76
2021/03/20 10:01:44;;;;;;;23.85;22.55;;;4.80;44.10;;;;;;5096007;28;20282;-77
2021/03/20 10:04:29;;;;;;;25.00;23.70;;;4.70;43.70;;;;;;5096102;28;20202;-76
2021/03/20 10:07:32;;;;;;;23.88;22.48;;;4.70;46.00;;;;;;5095485;28;20195;-76
2021/03/20 10:10:57;;;;;;;22.90;21.70;;;5.20;46.40;;;;;;5095577;28;20223;-76
2021/03/20 10:13:36;;;;;;;24.08;22.70;;;5.50;44.70;;;;;;5013517;28;20285;-76
2021/03/20 10:16:05;;;;;;;22.80;21.52;;;5.40;44.70;;;;;;5083297;28;20203;-76
2021/03/20 10:18:43;;;;;;;24.45;23.05;;;5.30;44.70;;;;;;5095456;28;20283;-76
2021/03/20 10:21:20;;;;;;;23.35;22.15;;;5.20;44.90;;;;;;5095519;28;20197;-76
2021/03/20 10:23:53;;;;;;;24.98;23.75;;;5.60;45.30;;;;;;5095453;28;20201;-76
2021/03/20 10:26:40;;;;;;;22.40;21.30;;;5.60;44.90;;;;;;5095626;28;20201;-76
2021/03/20 10:29:12;;;;;;;26.08;24.88;;;5.70;41.50;;;;;;5095287;28;20235;-76
2021/03/20 10:31:42;;;;;;;23.73;22.35;;;5.60;40.70;;;;;;5095279;28;20669;-76
2021/03/20 10:34:11;;;;;;;22.67;21.48;;;5.20;40.80;;;;;;5095390;28;20199;-76
2021/03/20 10:36:40;;;;;;;23.98;22.67;;;4.60;42.30;;;;;;5094997;28;20270;-76
2021/03/20 10:39:25;;;;;;;23.50;22.00;;;4.30;43.40;;;;;;5095409;28;20211;-77
2021/03/20 10:41:56;;;;;;;23.52;22.13;;;4.40;43.60;;;;;;5095135;28;20203;-77
2021/03/20 10:44:25;;;;;;;23.23;21.88;;;4.50;45.00;;;;;;5095041;28;20256;-76
2021/03/20 10:47:02;;;;;;;24.50;22.95;;;4.60;45.30;;;;;;5094885;28;20301;-76
2021/03/20 10:49:28;;;;;;;24.80;23.38;;;4.50;44.60;;;;;;5094646;28;20226;-76
2021/03/20 10:51:57;;;;;;;22.27;21.17;;;4.50;45.50;;;;;;5094491;28;20207;-76
2021/03/20 10:54:35;;;;;;;24.10;22.80;;;4.40;46.10;;;;;;5094973;28;20286;-76
2021/03/20 10:57:07;;;;;;;23.27;21.98;;;4.10;42.70;;;;;;5094355;28;20209;-77
2021/03/20 10:59:36;;;;;;;24.13;22.92;;;3.80;42.80;;;;;;5094785;28;20234;-76
2021/03/20 11:02:31;;;;;;;22.90;21.70;;;4.10;42.60;;;;;;5094712;28;20294;-76
2021/03/20 11:05:30;;;;;;;25.13;23.20;;;4.10;43.80;;;;;;5059284;28;20196;-77
2021/03/20 11:07:59;;;;;;;22.90;21.50;;;4.20;44.40;;;;;;5093159;28;20203;-77
2021/03/20 11:10:31;;;;;;;23.33;21.98;;;4.10;44.80;;;;;;5094604;28;20215;-76
2021/03/20 11:13:04;;;;;;;24.00;22.60;;;4.10;44.70;;;;;;5094512;28;20718;-76
2021/03/20 11:15:32;;;;;;;23.10;21.80;;;4.30;45.20;;;;;;5094504;28;20286;-76
2021/03/20 11:18:00;;;;;;;25.85;24.27;;;4.30;44.70;;;;;;5094276;28;20200;-77
2021/03/20 11:20:32;;;;;;;23.10;21.80;;;4.10;44.90;;;;;;5094396;28;20261;-77
2021/03/20 11:22:59;;;;;;;24.85;23.45;;;4.30;44.70;;;;;;5094472;28;20203;-76
2021/03/20 11:25:34;;;;;;;23.50;22.20;;;4.30;45.90;;;;;;5094278;28;20199;-76
2021/03/20 11:28:05;;;;;;;24.95;23.40;;;4.10;45.10;;;;;;5094211;28;20205;-76
2021/03/20 11:30:38;;;;;;;24.48;23.10;;;3.90;45.40;;;;;;5094253;28;20739;-76
2021/03/20 11:33:05;;;;;;;26.58;25.17;;;3.90;46.10;;;;;;5094098;28;20230;-76
2021/03/20 11:35:35;;;;;;;24.63;23.20;;;3.80;45.10;;;;;;5093880;28;20664;-76
2021/03/20 11:38:04;;;;;;;23.20;21.90;;;3.90;45.80;;;;;;5093958;28;20340;-76
2021/03/20 11:40:33;;;;;;;23.42;22.13;;;3.80;46.40;;;;;;5093758;28;20215;-76
2021/03/20 11:43:03;;;;;;;24.77;23.38;;;4.00;46.10;;;;;;5093542;28;20199;-76
2021/03/20 11:45:32;;;;;;;23.70;22.30;;;4.10;46.90;;;;;;5093740;28;20199;-76
2021/03/20 11:48:04;;;;;;;22.30;21.10;;;4.20;47.40;;;;;;5093753;28;20203;-76
2021/03/20 11:50:34;;;;;;;24.83;23.23;;;4.40;46.40;;;;;;5093733;28;20279;-76
2021/03/20 11:53:04;;;;;;;24.17;22.67;;;4.60;53.90;;;;;;5093493;28;20281;-76
2021/03/20 11:55:36;;;;;;;24.08;22.67;;;4.90;47.30;;;;;;5093551;28;20242;-76
2021/03/20 11:58:06;;;;;;;23.15;21.95;;;5.00;44.90;;;;;;5093512;28;20308;-76
2021/03/20 12:00:37;;;;;;;24.08;22.77;;;4.90;44.20;;;;;;5093613;28;20219;-76
2021/03/20 12:03:35;;;;;;;23.65;22.35;;;4.60;44.30;;;;;;5092689;28;20195;-76
2021/03/20 12:06:29;;;;;;;25.48;23.95;;;4.40;45.00;;;;;;5093602;28;20542;-76
2021/03/20 12:08:56;;;;;;;23.63;22.05;;;4.50;45.70;;;;;;5093531;28;20229;-77
2021/03/20 12:11:39;;;;;;;24.50;23.00;;;4.60;45.10;;;;;;5093487;28;20252;-76
2021/03/20 12:14:35;;;;;;;24.30;22.95;;;4.70;44.10;;;;;;5092701;28;20564;-76
2021/03/20 12:17:04;;;;;;;23.00;21.70;;;4.60;46.60;;;;;;5076962;28;20290;-76
2021/03/20 12:19:31;;;;;;;24.52;23.23;;;4.80;44.70;;;;;;5093449;28;20364;-76
2021/03/20 12:22:02;;;;;;;24.08;22.67;;;4.80;46.10;;;;;;5093222;28;20199;-77
2021/03/20 12:24:32;;;;;;;24.15;22.77;;;4.80;45.30;;;;;;5093399;28;20206;-76
2021/03/20 12:27:26;;;;;;;23.98;22.35;;;4.80;46.00;;;;;;5093061;28;20210;-76
2021/03/20 12:30:00;;;;;;;24.05;22.65;;;5.20;46.30;;;;;;5093078;28;20228;-76
2021/03/20 12:32:35;;;;;;;24.50;22.73;;;5.50;45.20;;;;;;5092868;28;20217;-76
2021/03/20 12:35:23;;;;;;;24.38;23.08;;;5.50;44.50;;;;;;5093051;28;20211;-76
2021/03/20 12:38:03;;;;;;;23.80;22.40;;;5.70;44.20;;;;;;5092874;28;20283;-76
2021/03/20 12:40:30;;;;;;;23.80;22.30;;;5.70;44.20;;;;;;5092964;28;20694;-76
2021/03/20 12:42:59;;;;;;;24.45;23.05;;;5.90;44.10;;;;;;5092827;28;20290;-77
2021/03/20 12:45:29;;;;;;;24.00;22.63;;;5.60;44.60;;;;;;5092907;28;20202;-76
2021/03/20 12:47:55;;;;;;;24.25;22.85;;;5.30;44.70;;;;;;5092871;28;20195;-76
2021/03/20 12:50:22;;;;;;;23.67;22.38;;;5.00;44.60;;;;;;5092874;28;20246;-76
2021/03/20 12:52:49;;;;;;;24.60;23.20;;;4.70;45.40;;;;;;5092475;28;20672;-76
2021/03/20 12:55:15;;;;;;;24.10;22.80;;;4.70;45.70;;;;;;5092756;28;20195;-76
2021/03/20 12:57:42;;;;;;;24.00;22.70;;;4.90;44.60;;;;;;5092297;28;20203;-76
2021/03/20 13:00:12;;;;;;;24.08;22.73;;;4.80;44.30;;;;;;5092662;28;20294;-76
2021/03/20 13:02:39;;;;;;;25.38;23.88;;;4.80;44.80;;;;;;5092646;28;20657;-76
2021/03/20 13:05:06;;;;;;;24.30;23.00;;;4.80;46.10;;;;;;5092715;28;20199;-76
2021/03/20 13:07:33;;;;;;;24.35;22.60;;;4.80;46.20;;;;;;5092518;28;20195;-76
2021/03/20 13:09:59;;;;;;;27.23;25.50;;;4.80;45.10;;;;;;5092412;28;20588;-76
2021/03/20 13:12:25;;;;;;;24.75;23.45;;;4.80;45.70;;;;;;5092585;28;20663;-76